createdAt,value
2017-09-13T00:02:11.276Z,7.90
2017-09-13T00:04:38.743Z,7.90
2017-09-13T00:07:06.256Z,7.70
2017-09-13T00:09:33.719Z,7.70
2017-09-13T00:12:01.188Z,7.40
2017-09-13T00:14:28.698Z,7.50
2017-09-13T00:16:56.950Z,7.90
2017-09-13T00:19:24.447Z,7.80
2017-09-13T00:21:52.679Z,7.90
2017-09-13T00:24:20.149Z,7.90
2017-09-13T00:26:47.645Z,7.90
2017-09-13T00:29:15.104Z,7.90
2017-09-13T00:31:42.615Z,7.80
2017-09-13T00:34:10.088Z,7.50
2017-09-13T00:36:37.556Z,7.60
2017-09-13T00:39:05.827Z,7.50
2017-09-13T00:41:33.296Z,7.50
2017-09-13T00:44:01.567Z,7.50
2017-09-13T00:46:29.828Z,7.60
2017-09-13T00:48:57.286Z,7.60
2017-09-13T00:51:24.800Z,7.60
2017-09-13T00:53:52.264Z,7.60
2017-09-13T00:56:19.751Z,7.60
2017-09-13T00:58:47.225Z,7.20
2017-09-13T01:01:14.710Z,7.00
2017-09-13T01:03:42.973Z,7.00
2017-09-13T01:06:10.468Z,6.90
2017-09-13T01:08:37.970Z,6.90
2017-09-13T01:11:05.456Z,7.00
2017-09-13T01:13:33.778Z,6.80
2017-09-13T01:16:01.235Z,6.80
2017-09-13T01:18:28.710Z,7.00
2017-09-13T01:20:56.201Z,7.10
2017-09-13T01:23:23.703Z,7.20
2017-09-13T01:25:51.191Z,7.20
2017-09-13T01:28:18.661Z,7.00
2017-09-13T01:30:46.157Z,7.10
2017-09-13T01:33:14.379Z,6.80
2017-09-13T01:35:41.899Z,6.80
2017-09-13T01:38:10.139Z,6.50
2017-09-13T01:40:39.101Z,6.50
2017-09-13T01:43:06.586Z,6.50
2017-09-13T01:45:34.050Z,6.50
2017-09-13T01:48:01.571Z,6.50
2017-09-13T01:50:29.043Z,6.60
2017-09-13T01:52:56.532Z,6.80
2017-09-13T01:55:24.014Z,6.90
2017-09-13T01:57:52.246Z,6.90
2017-09-13T02:00:19.740Z,6.90
2017-09-13T02:02:47.966Z,7.10
2017-09-13T02:05:15.464Z,7.10
2017-09-13T02:07:42.925Z,7.20
2017-09-13T02:10:11.159Z,7.10
2017-09-13T02:12:38.670Z,7.00
2017-09-13T02:15:06.888Z,6.90
2017-09-13T02:17:34.390Z,6.90
2017-09-13T02:20:01.848Z,7.00
2017-09-13T02:22:30.079Z,7.00
2017-09-13T02:24:57.592Z,7.00
2017-09-13T02:27:25.814Z,7.00
2017-09-13T02:29:53.316Z,7.00
2017-09-13T02:32:20.788Z,6.90
2017-09-13T02:34:49.031Z,7.00
2017-09-13T02:37:16.536Z,7.00
2017-09-13T02:39:44.016Z,6.90
2017-09-13T02:42:11.520Z,7.00
2017-09-13T02:44:38.981Z,7.00
2017-09-13T02:47:06.440Z,7.00
2017-09-13T02:49:33.919Z,7.00
2017-09-13T02:52:02.176Z,7.10
2017-09-13T02:54:29.671Z,7.10
2017-09-13T02:56:57.149Z,7.30
2017-09-13T02:59:24.607Z,7.30
2017-09-13T03:01:52.091Z,7.40
2017-09-13T03:04:19.574Z,7.50
2017-09-13T03:06:47.835Z,7.70
2017-09-13T03:09:15.296Z,7.60
2017-09-13T03:11:42.769Z,7.70
2017-09-13T03:14:10.271Z,7.70
2017-09-13T03:16:37.739Z,7.80
2017-09-13T03:19:05.235Z,7.90
2017-09-13T03:21:32.729Z,7.90
2017-09-13T03:24:00.215Z,7.90
2017-09-13T03:26:27.672Z,7.90
2017-09-13T03:28:55.135Z,7.70
2017-09-13T03:31:22.628Z,7.80
2017-09-13T03:33:50.099Z,7.80
2017-09-13T03:36:18.320Z,7.70
2017-09-13T03:38:45.829Z,7.80
2017-09-13T03:41:13.287Z,7.80
2017-09-13T03:43:40.806Z,7.80
2017-09-13T03:46:08.289Z,7.60
2017-09-13T03:48:35.783Z,7.60
2017-09-13T03:51:03.259Z,7.70
2017-09-13T03:53:30.750Z,7.60
2017-09-13T03:55:58.229Z,7.90
2017-09-13T03:58:25.697Z,7.90
2017-09-13T04:00:53.958Z,7.90
2017-09-13T04:03:21.434Z,7.90
2017-09-13T04:05:49.682Z,8.10
2017-09-13T04:08:17.167Z,8.10
2017-09-13T04:10:45.443Z,7.90
2017-09-13T04:13:13.677Z,8.10
2017-09-13T04:15:41.755Z,8.00
2017-09-13T04:18:09.252Z,8.00
2017-09-13T04:20:37.484Z,7.90
2017-09-13T04:23:04.974Z,7.90
2017-09-13T04:25:32.455Z,8.10
2017-09-13T04:28:00.678Z,8.10
2017-09-13T04:30:28.191Z,8.10
2017-09-13T04:32:56.423Z,8.30
2017-09-13T04:35:23.936Z,8.30
2017-09-13T04:37:52.158Z,8.30
2017-09-13T04:40:19.627Z,8.30
2017-09-13T04:42:47.146Z,8.60
2017-09-13T04:45:14.622Z,8.50
2017-09-13T04:47:42.119Z,8.50
2017-09-13T04:50:09.616Z,8.40
2017-09-13T04:52:37.091Z,8.50
2017-09-13T04:55:04.614Z,8.70
2017-09-13T04:57:32.850Z,8.80
2017-09-13T05:00:00.316Z,8.80
2017-09-13T05:02:27.807Z,8.80
2017-09-13T05:04:56.041Z,9.30
2017-09-13T05:07:23.522Z,9.20
2017-09-13T05:09:51.764Z,9.50
2017-09-13T05:12:19.308Z,9.40
2017-09-13T05:14:46.771Z,9.40
2017-09-13T05:17:14.280Z,9.50
2017-09-13T05:19:42.556Z,9.50
2017-09-13T05:22:10.831Z,9.60
2017-09-13T05:24:38.363Z,9.60
2017-09-13T05:27:05.824Z,9.60
2017-09-13T05:29:33.304Z,9.70
2017-09-13T05:32:01.580Z,9.70
2017-09-13T05:34:29.058Z,9.70
2017-09-13T05:36:57.308Z,9.90
2017-09-13T05:39:24.818Z,9.80
2017-09-13T05:41:52.310Z,9.80
2017-09-13T05:44:19.811Z,9.80
2017-09-13T05:46:47.335Z,9.80
2017-09-13T05:49:14.800Z,9.90
2017-09-13T05:51:42.364Z,9.90
2017-09-13T05:54:09.879Z,9.90
2017-09-13T05:56:37.437Z,9.90
2017-09-13T05:59:04.930Z,9.90
2017-09-13T06:01:32.414Z,9.90
2017-09-13T06:04:00.685Z,9.90
2017-09-13T06:06:28.970Z,9.90
2017-09-13T06:08:57.247Z,10.00
2017-09-13T06:11:25.531Z,10.10
2017-09-13T06:13:53.771Z,10.10
2017-09-13T06:16:21.274Z,10.10
2017-09-13T06:18:48.755Z,10.20
2017-09-13T06:21:17.195Z,10.20
2017-09-13T06:23:45.450Z,10.30
2017-09-13T06:26:12.940Z,10.30
2017-09-13T06:28:41.191Z,10.40
2017-09-13T06:31:08.699Z,10.40
2017-09-13T06:33:36.318Z,10.40
2017-09-13T06:36:03.813Z,10.40
2017-09-13T06:38:31.307Z,10.40
2017-09-13T06:40:58.844Z,10.60
2017-09-13T06:43:26.311Z,10.50
2017-09-13T06:45:53.840Z,10.50
2017-09-13T06:48:22.071Z,10.70
2017-09-13T06:50:49.552Z,10.70
2017-09-13T06:53:17.032Z,10.60
2017-09-13T06:55:44.507Z,10.70
2017-09-13T06:58:12.127Z,10.80
2017-09-13T07:00:39.604Z,10.90
2017-09-13T07:03:07.869Z,11.00
2017-09-13T07:05:35.369Z,11.00
2017-09-13T07:08:02.912Z,11.10
2017-09-13T07:10:31.175Z,11.00
2017-09-13T07:12:59.411Z,11.00
2017-09-13T07:15:26.911Z,11.00
2017-09-13T07:17:55.182Z,11.10
2017-09-13T07:20:22.651Z,11.10
2017-09-13T07:22:50.932Z,11.20
2017-09-13T07:25:19.208Z,11.30
2017-09-13T07:27:47.464Z,11.30
2017-09-13T07:30:14.944Z,11.30
2017-09-13T07:32:43.220Z,11.40
2017-09-13T07:35:11.490Z,11.50
2017-09-13T07:37:39.715Z,11.50
2017-09-13T07:40:07.214Z,11.50
2017-09-13T07:42:35.456Z,11.60
2017-09-13T07:45:02.970Z,11.60
2017-09-13T07:47:30.840Z,11.60
2017-09-13T07:49:58.307Z,11.70
2017-09-13T07:52:25.825Z,11.80
2017-09-13T07:54:54.086Z,11.80
2017-09-13T07:57:21.592Z,11.80
2017-09-13T07:59:49.103Z,11.90
2017-09-13T08:02:16.633Z,12.00
2017-09-13T08:04:44.144Z,12.10
2017-09-13T08:07:11.612Z,12.10
2017-09-13T08:09:39.886Z,12.20
2017-09-13T08:12:08.150Z,12.30
2017-09-13T08:14:35.627Z,12.30
2017-09-13T08:17:03.891Z,12.50
2017-09-13T08:19:32.148Z,12.50
2017-09-13T08:21:59.647Z,12.50
2017-09-13T08:24:27.888Z,12.50
2017-09-13T08:26:55.436Z,12.50
2017-09-13T08:29:22.916Z,12.40
2017-09-13T08:31:50.419Z,12.50
2017-09-13T08:34:17.951Z,12.60
2017-09-13T08:36:46.205Z,12.70
2017-09-13T08:39:13.691Z,12.70
2017-09-13T08:41:41.964Z,13.00
2017-09-13T08:44:10.241Z,13.10
2017-09-13T08:46:38.484Z,13.20
2017-09-13T08:49:05.999Z,13.10
2017-09-13T08:51:33.511Z,13.30
2017-09-13T08:54:01.000Z,13.50
2017-09-13T08:56:29.300Z,13.60
2017-09-13T08:58:56.819Z,13.60
2017-09-13T09:01:24.334Z,13.80
2017-09-13T09:03:51.848Z,13.90
2017-09-13T09:06:20.084Z,14.20
2017-09-13T09:08:47.612Z,14.10
2017-09-13T09:11:15.078Z,14.20
2017-09-13T09:13:42.557Z,14.30
2017-09-13T09:16:10.070Z,14.60
2017-09-13T09:18:38.327Z,14.70
2017-09-13T09:21:05.833Z,14.70
2017-09-13T09:23:33.315Z,14.80
2017-09-13T09:26:00.818Z,14.80
2017-09-13T09:28:29.081Z,14.70
2017-09-13T09:30:57.331Z,14.70
2017-09-13T09:33:24.858Z,14.70
2017-09-13T09:35:52.331Z,14.80
2017-09-13T09:38:19.852Z,14.90
2017-09-13T09:40:48.074Z,14.90
2017-09-13T09:43:15.564Z,14.90
2017-09-13T09:45:43.822Z,14.90
2017-09-13T09:48:11.318Z,14.90
2017-09-13T09:50:39.607Z,14.90
2017-09-13T09:53:07.832Z,15.00
2017-09-13T09:55:35.360Z,15.00
2017-09-13T09:58:02.826Z,15.10
2017-09-13T10:00:30.316Z,15.10
2017-09-13T10:02:57.814Z,15.20
2017-09-13T10:05:26.054Z,15.40
2017-09-13T10:07:53.547Z,15.40
2017-09-13T10:10:21.784Z,15.40
2017-09-13T10:12:50.061Z,15.30
2017-09-13T10:15:17.568Z,15.20
2017-09-13T10:17:45.047Z,15.10
2017-09-13T10:20:12.541Z,15.10
2017-09-13T10:22:40.036Z,15.10
2017-09-13T10:25:08.326Z,15.30
2017-09-13T10:27:35.797Z,15.30
2017-09-13T10:30:03.273Z,15.40
2017-09-13T10:32:30.784Z,15.30
2017-09-13T10:34:59.059Z,15.50
2017-09-13T10:37:27.315Z,15.50
2017-09-13T10:39:56.310Z,15.60
2017-09-13T10:42:23.838Z,15.50
2017-09-13T10:44:51.312Z,15.60
2017-09-13T10:47:18.792Z,15.70
2017-09-13T10:49:46.294Z,15.70
2017-09-13T10:52:13.769Z,15.80
2017-09-13T10:54:41.271Z,15.90
2017-09-13T10:57:10.247Z,16.00
2017-09-13T10:59:37.762Z,16.10
2017-09-13T11:02:05.234Z,16.00
2017-09-13T11:04:32.730Z,15.90
2017-09-13T11:07:00.219Z,15.90
2017-09-13T11:09:28.472Z,16.10
2017-09-13T11:11:56.744Z,16.00
2017-09-13T11:14:25.071Z,16.00
2017-09-13T11:16:52.553Z,16.00
2017-09-13T11:19:20.047Z,15.90
2017-09-13T11:21:49.017Z,15.80
2017-09-13T11:24:16.526Z,15.80
2017-09-13T11:26:43.998Z,15.80
2017-09-13T11:29:11.536Z,15.90
2017-09-13T11:31:39.772Z,16.00
2017-09-13T11:34:07.278Z,16.00
2017-09-13T11:36:34.751Z,16.00
2017-09-13T11:39:02.219Z,16.30
2017-09-13T11:41:29.723Z,16.40
2017-09-13T11:43:57.978Z,16.80
2017-09-13T11:46:25.467Z,16.80
2017-09-13T11:48:53.691Z,17.00
2017-09-13T11:51:21.238Z,17.00
2017-09-13T11:53:48.739Z,17.30
2017-09-13T11:56:16.224Z,17.40
2017-09-13T11:58:44.465Z,17.80
2017-09-13T12:01:12.016Z,17.70
2017-09-13T12:03:39.496Z,18.00
2017-09-13T12:06:07.724Z,18.20
2017-09-13T12:08:35.219Z,18.20
2017-09-13T12:11:02.683Z,18.10
2017-09-13T12:13:30.211Z,18.10
2017-09-13T12:15:57.692Z,18.20
2017-09-13T12:18:25.151Z,18.20
2017-09-13T12:20:52.674Z,18.10
2017-09-13T12:23:20.144Z,18.10
2017-09-13T12:25:47.668Z,18.00
2017-09-13T12:28:15.920Z,17.80
2017-09-13T12:30:43.375Z,17.80
2017-09-13T12:33:11.644Z,17.70
2017-09-13T12:35:39.129Z,17.70
2017-09-13T12:38:06.627Z,17.60
2017-09-13T12:40:34.118Z,17.50
2017-09-13T12:43:01.621Z,17.50
2017-09-13T12:45:29.849Z,17.60
2017-09-13T12:47:57.367Z,17.60
2017-09-13T12:50:24.839Z,17.60
2017-09-13T12:52:52.321Z,17.60
2017-09-13T12:55:19.836Z,17.60
2017-09-13T12:57:48.076Z,17.50
2017-09-13T13:00:15.580Z,17.50
2017-09-13T13:02:43.052Z,17.40
2017-09-13T13:05:10.537Z,17.40
2017-09-13T13:07:38.012Z,17.30
2017-09-13T13:10:05.531Z,17.40
2017-09-13T13:12:33.008Z,17.50
2017-09-13T13:15:00.491Z,17.60
2017-09-13T13:17:28.760Z,17.70
2017-09-13T13:19:57.748Z,17.70
2017-09-13T13:22:25.220Z,17.70
2017-09-13T13:24:53.510Z,17.50
2017-09-13T13:27:20.967Z,17.50
2017-09-13T13:29:49.262Z,17.30
2017-09-13T13:32:17.511Z,17.30
2017-09-13T13:34:46.531Z,17.40
2017-09-13T13:37:14.788Z,17.30
2017-09-13T13:39:42.248Z,17.40
2017-09-13T13:42:09.745Z,17.40
2017-09-13T13:44:37.215Z,17.40
2017-09-13T13:47:04.700Z,17.40
2017-09-13T13:49:32.183Z,17.40
2017-09-13T13:51:59.720Z,17.40
2017-09-13T13:54:27.200Z,17.50
2017-09-13T13:56:54.656Z,17.50
2017-09-13T13:59:22.189Z,17.60
2017-09-13T14:01:49.639Z,17.50
2017-09-13T14:04:17.161Z,17.60
2017-09-13T14:06:45.664Z,17.60
2017-09-13T14:09:13.125Z,17.60
2017-09-13T14:11:40.631Z,17.60
2017-09-13T14:27:13.911Z,17.40
2017-09-13T14:29:41.391Z,17.30
2017-09-13T14:32:09.684Z,17.30
2017-09-13T14:34:37.147Z,17.30
2017-09-13T14:37:04.627Z,17.30
2017-09-13T14:39:32.095Z,17.30
2017-09-13T14:41:59.577Z,17.30
2017-09-13T14:44:27.067Z,17.30
2017-09-13T14:46:54.556Z,17.20
2017-09-13T14:49:22.090Z,17.30
2017-09-13T14:51:50.315Z,17.20
2017-09-13T14:54:18.731Z,17.20
2017-09-13T14:56:46.996Z,17.00
2017-09-13T14:59:15.243Z,16.80
2017-09-13T15:01:42.756Z,16.80
2017-09-13T15:04:10.976Z,16.70
2017-09-13T15:06:38.494Z,16.70
2017-09-13T15:09:06.733Z,16.60
2017-09-13T15:11:34.199Z,16.60
2017-09-13T15:14:01.687Z,16.60
2017-09-13T15:16:29.139Z,16.50
2017-09-13T15:18:56.635Z,16.50
2017-09-13T15:21:24.108Z,16.40
2017-09-13T15:23:51.648Z,16.40
2017-09-13T15:26:19.141Z,16.30
2017-09-13T15:28:46.640Z,16.20
2017-09-13T15:31:14.907Z,16.10
2017-09-13T15:33:43.143Z,16.10
2017-09-13T15:36:10.707Z,16.10
2017-09-13T17:14:26.691Z,15.60
2017-09-13T17:16:54.964Z,15.50
2017-09-13T17:19:22.418Z,15.50
2017-09-13T17:21:49.887Z,15.50
2017-09-13T17:24:18.163Z,15.50
2017-09-13T17:26:46.419Z,15.60
2017-09-13T17:29:13.890Z,15.50
2017-09-13T17:31:42.149Z,15.60
2017-09-13T17:34:09.644Z,15.60
2017-09-13T17:36:37.922Z,15.60
2017-09-13T17:39:06.231Z,15.60
2017-09-13T17:41:33.703Z,15.60
2017-09-13T17:44:01.188Z,15.60
2017-09-13T17:46:28.708Z,15.70
2017-09-13T17:48:56.171Z,15.60
2017-09-13T17:51:23.660Z,15.60
2017-09-13T17:53:51.142Z,15.70
2017-09-13T17:56:19.423Z,15.60
2017-09-13T17:58:47.683Z,15.70
2017-09-13T18:01:15.281Z,15.70
2017-09-13T18:03:42.780Z,15.60
2017-09-13T18:06:10.269Z,15.60
2017-09-13T18:08:38.523Z,15.50
2017-09-13T18:11:05.989Z,15.50
2017-09-13T18:13:33.481Z,15.50
2017-09-13T18:16:01.727Z,15.40
2017-09-13T18:18:29.208Z,15.40
2017-09-13T18:20:57.467Z,15.50
2017-09-13T18:23:25.706Z,15.40
2017-09-13T18:25:53.195Z,15.40
2017-09-13T18:28:20.655Z,15.40
2017-09-13T18:30:48.190Z,15.40
2017-09-13T18:33:15.699Z,15.40
2017-09-13T18:35:43.934Z,15.40
2017-09-13T18:38:11.438Z,15.40
2017-09-13T18:40:39.661Z,15.40
2017-09-13T18:43:07.180Z,15.40
2017-09-13T18:45:34.644Z,15.40
2017-09-13T18:48:02.111Z,15.20
2017-09-13T18:50:29.643Z,15.40
2017-09-13T18:52:57.899Z,15.40
2017-09-13T18:55:25.374Z,15.40
2017-09-13T18:57:53.659Z,15.30
2017-09-13T19:00:21.958Z,15.30
2017-09-13T19:02:49.431Z,15.30
2017-09-13T19:05:16.918Z,15.40
2017-09-13T19:07:44.419Z,15.50
2017-09-13T19:10:11.888Z,15.40
2017-09-13T19:12:39.397Z,15.50
2017-09-13T19:15:06.878Z,15.50
2017-09-13T19:17:35.168Z,15.60
2017-09-13T19:20:02.654Z,15.60
2017-09-13T19:22:30.136Z,15.70
2017-09-13T19:24:57.638Z,15.60
2017-09-13T19:27:25.870Z,15.70
2017-09-13T19:29:53.366Z,15.60
2017-09-13T19:32:21.609Z,15.60
2017-09-13T19:34:49.071Z,15.60
2017-09-13T19:37:16.564Z,15.60
2017-09-13T19:39:44.792Z,15.50
2017-09-13T19:42:12.316Z,15.50
2017-09-13T19:44:39.789Z,15.60
2017-09-13T19:47:07.255Z,15.80
2017-09-13T19:49:34.747Z,15.70
2017-09-13T19:52:02.212Z,15.70
2017-09-13T19:54:29.772Z,15.80
2017-09-13T19:56:58.020Z,15.70
2017-09-13T19:59:25.565Z,15.70
2017-09-13T20:01:53.069Z,15.80
2017-09-13T20:04:21.350Z,15.90
2017-09-13T20:06:48.898Z,15.80
2017-09-13T20:09:17.881Z,16.00
2017-09-13T20:11:45.352Z,16.00
2017-09-13T20:14:12.843Z,16.00
2017-09-13T20:16:40.319Z,16.00
2017-09-13T20:19:07.860Z,16.10
2017-09-13T20:21:36.113Z,16.20
2017-09-13T20:24:03.576Z,16.20
2017-09-13T20:26:32.815Z,16.30
2017-09-13T20:29:00.319Z,16.30
2017-09-13T20:31:27.807Z,16.30
2017-09-13T20:33:56.047Z,16.30
2017-09-13T20:36:25.208Z,16.10
2017-09-13T20:38:52.701Z,16.10
2017-09-13T20:41:20.159Z,16.00
2017-09-13T20:43:47.624Z,16.00
2017-09-13T20:46:15.891Z,16.30
2017-09-13T20:48:43.434Z,16.30
2017-09-13T20:51:10.908Z,16.20
2017-09-13T20:53:38.376Z,16.10
2017-09-13T20:56:06.641Z,16.40
2017-09-13T20:58:34.141Z,16.40
2017-09-13T21:01:01.650Z,16.30
2017-09-13T21:03:29.138Z,16.40
2017-09-13T21:05:56.715Z,16.30
2017-09-13T21:08:24.974Z,16.40
2017-09-13T21:10:52.438Z,16.40
2017-09-13T21:13:19.919Z,16.50
2017-09-13T21:15:47.391Z,16.30
2017-09-13T21:18:14.909Z,16.40
2017-09-13T21:20:43.148Z,16.30
2017-09-13T21:23:10.609Z,16.30
2017-09-13T21:25:38.099Z,16.50
2017-09-13T21:28:07.059Z,16.60
2017-09-13T21:30:34.531Z,16.60
2017-09-13T21:33:02.007Z,16.50
2017-09-13T21:35:29.476Z,16.40
2017-09-13T21:37:57.004Z,16.30
2017-09-13T21:40:24.467Z,16.40
2017-09-13T21:42:51.960Z,16.40
2017-09-13T21:45:20.209Z,16.60
2017-09-13T21:47:47.700Z,16.50
2017-09-13T21:50:15.937Z,16.60
2017-09-13T21:52:43.406Z,16.50
2017-09-13T21:55:10.903Z,16.50
2017-09-13T21:57:39.127Z,16.50
2017-09-13T22:00:06.640Z,16.50
2017-09-13T22:02:34.114Z,16.50
2017-09-13T22:05:01.581Z,16.70
2017-09-13T22:07:29.071Z,16.70
2017-09-13T22:09:56.559Z,16.80
2017-09-13T22:12:24.796Z,16.80
2017-09-13T22:14:52.286Z,16.80
2017-09-13T22:17:20.559Z,16.60
2017-09-13T22:19:48.016Z,16.60
2017-09-13T22:22:15.504Z,16.70
2017-09-13T22:24:43.006Z,16.80
2017-09-13T22:27:10.490Z,16.60
2017-09-13T22:29:37.982Z,16.80
2017-09-13T22:32:05.451Z,16.70
2017-09-13T22:34:32.967Z,16.70
2017-09-13T22:37:01.207Z,16.40
2017-09-13T22:39:28.679Z,16.40
2017-09-13T22:41:56.166Z,16.40
2017-09-13T22:44:23.667Z,16.70
2017-09-13T22:46:51.167Z,16.50
2017-09-13T22:49:18.643Z,16.60
2017-09-13T22:51:46.106Z,16.70
2017-09-13T22:54:14.388Z,16.90
2017-09-13T22:56:42.611Z,16.80
2017-09-13T22:59:10.075Z,16.80
2017-09-13T23:01:37.607Z,16.70
2017-09-13T23:04:05.099Z,16.60
2017-09-13T23:06:32.554Z,16.70
2017-09-13T23:09:00.055Z,16.60
2017-09-13T23:11:28.329Z,16.70
2017-09-13T23:13:56.584Z,16.70
2017-09-13T23:16:24.809Z,16.50
2017-09-13T23:18:52.293Z,16.50
2017-09-13T23:21:19.784Z,16.50
2017-09-13T23:23:47.267Z,16.50
2017-09-13T23:26:16.441Z,16.60
2017-09-13T23:28:45.428Z,16.60
2017-09-13T23:31:12.895Z,16.60
2017-09-13T23:33:40.393Z,16.70
2017-09-13T23:36:07.890Z,16.80
2017-09-13T23:38:35.356Z,16.60
2017-09-13T23:41:02.870Z,16.50
2017-09-13T23:43:30.400Z,16.80
2017-09-13T23:45:58.640Z,16.50
2017-09-13T23:48:26.111Z,16.50
2017-09-13T23:50:54.382Z,16.60
2017-09-13T23:53:21.839Z,16.60
2017-09-13T23:55:49.348Z,16.60
2017-09-13T23:58:17.578Z,16.50
